• Join FlightAware (Why Join?)
  • Login
  • US Flag 
08:09PM EDT


 

Airport Tracker/Info


-or-


 

Live Flight TrackerFlight Track Log ✈ GGA1 ✈ 16-May-2013 ✈ KAHN - KINT

Flight Track Log - Related Links

Times and Time Zones

All times are in EDT time to prevent confusion due to time zone crossing. See the GGA1 flight status page for this flight to view local times or setup timezone preferences in your user account.

Time Position Orientation Groundspeed Altitude Reporting Facility
EDT Latitude Longitude Course Direction KTS MPH feet Rate Location/Type
04:10PM 33.9667 -83.3500 344° North 152 175 2,000  Level Atlanta TRACON
04:11PM 33.9947 -83.3597 344° North 158 182 3,500 1,980 Climbing Atlanta Center
04:12PM 34.0322 -83.3219 40° Northeast 171 197 5,500 1,800 Climbing Atlanta Center
04:13PM 34.0675 -83.2764 47° Northeast 188 216 7,200 1,740 Climbing Atlanta Center
04:14PM 34.1025 -83.2286 48° Northeast 208 239 9,000 1,380 Climbing Atlanta Center
04:15PM 34.1397 -83.1728 51° Northeast 213 245 10,000 1,680 Climbing Atlanta Center
04:17PM 34.2225 -83.0664 47° Northeast 212 244 14,100 1,980 Climbing Atlanta Center
04:18PM 34.2658 -83.0158 44° Northeast 212 244 16,100 1,800 Climbing Atlanta Center
04:19PM 34.2967 -82.9600 56° Northeast 206 237 17,800 1,560 Climbing Atlanta Center
04:20PM 34.3422 -82.9042 45° Northeast 211 243 19,300 1,260 Climbing Atlanta Center
04:21PM 34.3792 -82.8433 54° Northeast 216 249 20,400 1,140 Climbing Atlanta Center
04:22PM 34.4286 -82.7822 46° Northeast 228 262 21,600 300 Climbing Atlanta Center
04:23PM 34.4778 -82.7083 51° Northeast 252 290 21,000 -300 Descending Atlanta Center
04:24PM 34.5292 -82.6369 49° Northeast 278 320 21,000  Level Atlanta Center
04:25PM 34.5828 -82.5653 48° Northeast 288 331 21,000  Level Atlanta Center
04:26PM 34.6358 -82.4861 51° Northeast 288 331 21,000  Level Atlanta Center
04:27PM 34.6872 -82.4169 48° Northeast 288 331 21,000  Level Atlanta Center
04:28PM 34.7383 -82.3428 50° Northeast 288 331 21,000  Level Atlanta Center
04:29PM 34.7917 -82.2683 49° Northeast 288 331 21,000  Level Atlanta Center
04:30PM 34.8447 -82.1911 50° Northeast 288 331 21,000  Level Atlanta Center
04:31PM 34.9000 -82.1192 47° Northeast 288 331 21,000  Level Atlanta Center
04:32PM 34.9489 -82.0519 48° Northeast 293 337 21,000  Level Atlanta Center
04:33PM 35.0042 -81.9747 49° Northeast 293 337 21,000  Level Atlanta Center
04:34PM 35.0653 -81.8944 47° Northeast 293 337 21,000  Level Atlanta Center
04:35PM 35.1397 -81.8519 25° Northeast 287 330 21,000  Level Atlanta Center
04:36PM 35.2053 -81.7942 36° Northeast 294 338 21,000  Level Atlanta Center
04:37PM 35.2772 -81.7389 32° Northeast 294 338 21,000  Level Atlanta Center
04:38PM 35.3472 -81.6836 33° Northeast 299 344 21,000 -180 Level Atlanta Center
04:39PM 35.4169 -81.6253 34° Northeast 299 344 20,700 -600 Descending Atlanta Center
04:40PM 35.4889 -81.5672 33° Northeast 305 351 19,900 -840 Descending Atlanta Center
04:41PM 35.5586 -81.5114 33° Northeast 305 351 19,100 -480 Descending Atlanta Center
04:42PM 35.6203 -81.4636 32° Northeast 295 339 19,000 -60 Descending Atlanta Center
04:43PM 35.6858 -81.4103 33° Northeast 289 333 19,000 -660 Level Atlanta Center
04:44PM 35.7578 -81.3544 32° Northeast 289 333 17,700 -1,500 Descending Atlanta Center
04:45PM 35.8397 -81.2875 34° Northeast 306 352 16,000 -1,680 Descending Atlanta Center
04:46PM 35.8944 -81.2139 47° Northeast 306 352 14,400 -1,680 Descending Atlanta Center
04:47PM 35.9192 -81.1106 74° East 293 337 12,700 -1,740 Descending Atlanta Center
04:48PM 35.9436 -81.0072 74° East 306 352 11,000 -1,800 Descending Atlanta Center
04:49PM 35.9703 -80.9033 72° East 306 352 9,200 -1,560 Descending Atlanta Center
04:50PM 35.9928 -80.8050 74° East 306 352 7,900 -1,140 Descending Atlanta Center
04:51PM 36.0114 -80.7197 75° East 294 338 7,000 -540 Descending Atlanta Center
04:52PM 36.0319 -80.6342 73° East 267 307 6,900 -60 Descending Atlanta Center
04:53PM 36.0583 -80.5378 71° East 261 300 6,900 -660 Level Atlanta Center
04:54PM 36.0808 -80.4469 73° East 266 306 5,600 -1,260 Descending Atlanta Center
04:55PM 36.1011 -80.3586 74° East 266 306 4,400 -1,200 Descending Atlanta Center
04:56PM 36.0989 -80.2817 92° East 253 291 3,200 -960 Descending Atlanta Center
04:57PM 36.0961 -80.1944 92° East 235 270 2,500 1,860 Descending Atlanta Center
04:58PM 36.0936 -80.1125 92° East 235 270 7,000 2,220 Climbing Atlanta Center
04:59PM 36.0908 -80.0278 92° East 235 270 7,000  Level Atlanta Center
05:01PM 36.1194 -80.1568 292° West  Level Estimated